createdAt,value
2023-03-01T00:01:43.932Z,9.10
2023-03-01T00:04:11.854Z,7.57
2023-03-01T00:06:39.637Z,8.07
2023-03-01T00:09:08.445Z,7.67
2023-03-01T00:11:37.559Z,7.70
2023-03-01T00:14:07.547Z,8.10
2023-03-01T00:16:39.536Z,7.87
2023-03-01T00:19:08.650Z,8.50
2023-03-01T00:21:36.862Z,8.87
2023-03-01T00:24:05.239Z,8.50
2023-03-01T00:26:33.272Z,8.40
2023-03-01T00:29:02.851Z,8.37
2023-03-01T00:31:33.276Z,8.43
2023-03-01T00:34:03.592Z,8.20
2023-03-01T00:36:33.794Z,8.43
2023-03-01T00:39:02.170Z,8.20
2023-03-01T00:41:29.989Z,7.60
2023-03-01T00:43:58.024Z,8.07
2023-03-01T00:46:28.646Z,9.17
2023-03-01T00:48:56.489Z,7.63
2023-03-01T00:51:25.957Z,8.00
2023-03-01T00:53:54.984Z,7.87
2023-03-01T00:56:23.295Z,8.03
2023-03-01T00:58:51.713Z,7.80
2023-03-01T01:01:21.217Z,7.90
2023-03-01T01:03:52.547Z,7.50
2023-03-01T01:06:23.895Z,8.27
2023-03-01T01:08:52.426Z,8.70
2023-03-01T01:11:20.762Z,8.17
2023-03-01T01:13:49.614Z,8.60
2023-03-01T01:16:18.894Z,7.83
2023-03-01T01:18:47.628Z,8.27
2023-03-01T01:21:19.419Z,8.27
2023-03-01T01:23:48.583Z,8.33
2023-03-01T01:26:18.262Z,8.70
2023-03-01T01:28:46.391Z,8.83
2023-03-01T01:31:14.336Z,8.17
2023-03-01T01:33:42.474Z,8.10
2023-03-01T01:36:10.824Z,8.13
2023-03-01T01:38:40.732Z,8.07
2023-03-01T01:41:08.790Z,8.07
2023-03-01T01:43:39.088Z,8.33
2023-03-01T01:46:17.810Z,8.17
2023-03-01T01:48:50.182Z,8.30
2023-03-01T01:51:21.608Z,8.53
2023-03-01T01:53:56.731Z,8.77
2023-03-01T01:56:27.711Z,8.13
2023-03-01T01:58:56.830Z,7.67
2023-03-01T02:01:24.638Z,8.43
2023-03-01T02:03:53.552Z,8.37
2023-03-01T02:06:33.601Z,9.17
2023-03-01T02:09:08.831Z,7.37
2023-03-01T02:11:38.469Z,8.63
2023-03-01T02:14:06.318Z,8.17
2023-03-01T02:16:35.145Z,8.17
2023-03-01T02:19:05.675Z,8.40
2023-03-01T02:21:43.954Z,8.23
2023-03-01T02:24:23.944Z,8.20
2023-03-01T02:26:56.300Z,7.97
2023-03-01T02:29:27.058Z,8.77
2023-03-01T02:31:58.611Z,9.17
2023-03-01T02:34:27.731Z,8.93
2023-03-01T02:36:58.858Z,7.77
2023-03-01T02:39:30.827Z,8.70
2023-03-01T02:41:59.799Z,8.87
2023-03-01T02:44:29.001Z,7.83
2023-03-01T02:46:58.775Z,7.73
2023-03-01T02:49:28.913Z,8.13
2023-03-01T02:52:19.436Z,8.77
2023-03-01T02:54:52.763Z,7.70
2023-03-01T02:57:21.633Z,8.87
2023-03-01T02:59:53.270Z,8.57
2023-03-01T03:02:36.595Z,7.33
2023-03-01T03:05:09.133Z,7.60
2023-03-01T03:07:38.981Z,8.43
2023-03-01T03:10:09.921Z,7.80
2023-03-01T03:12:37.707Z,7.87
2023-03-01T03:15:09.769Z,7.53
2023-03-01T03:17:38.287Z,7.97
2023-03-01T03:20:11.733Z,8.30
2023-03-01T03:22:40.338Z,7.97
2023-03-01T03:25:11.265Z,7.87
2023-03-01T03:27:39.487Z,7.90
2023-03-01T03:30:13.490Z,7.83
2023-03-01T03:32:41.650Z,7.77
2023-03-01T03:35:11.476Z,8.30
2023-03-01T03:37:56.766Z,8.03
2023-03-01T03:40:24.535Z,7.87
2023-03-01T03:42:52.314Z,7.77
2023-03-01T03:45:21.446Z,8.40
2023-03-01T03:47:49.297Z,8.50
2023-03-01T03:50:18.730Z,7.70
2023-03-01T03:52:46.917Z,8.93
2023-03-01T03:55:15.153Z,8.60
2023-03-01T03:57:43.611Z,8.50
2023-03-01T04:00:13.912Z,7.90
2023-03-01T04:02:44.398Z,8.73
2023-03-01T04:05:13.997Z,10.07
2023-03-01T04:07:43.853Z,9.23
2023-03-01T04:10:13.770Z,8.77
2023-03-01T04:12:44.050Z,8.37
2023-03-01T04:15:16.663Z,9.47
2023-03-01T04:17:47.701Z,8.53
2023-03-01T04:20:18.832Z,8.33
2023-03-01T04:22:47.774Z,9.33
2023-03-01T04:25:16.218Z,7.67
2023-03-01T04:27:44.019Z,8.47
2023-03-01T04:30:12.824Z,8.90
2023-03-01T04:32:40.602Z,8.70
2023-03-01T04:35:10.483Z,8.00
2023-03-01T04:37:38.242Z,8.40
2023-03-01T04:40:16.798Z,9.23
2023-03-01T04:42:45.048Z,8.53
2023-03-01T04:45:14.787Z,9.07
2023-03-01T04:47:43.466Z,9.27
2023-03-01T04:50:14.554Z,9.30
2023-03-01T04:52:42.904Z,8.73
2023-03-01T04:55:11.823Z,8.23
2023-03-01T04:57:39.833Z,8.33
2023-03-01T05:00:20.783Z,8.60
2023-03-01T05:02:55.037Z,8.83
2023-03-01T05:05:28.112Z,8.97
2023-03-01T05:07:57.350Z,8.63
2023-03-01T05:10:25.995Z,7.97
2023-03-01T05:12:54.164Z,8.40
2023-03-01T05:15:26.315Z,7.97
2023-03-01T05:17:55.944Z,8.53
2023-03-01T05:20:25.076Z,8.70
2023-03-01T05:22:53.369Z,8.23
2023-03-01T05:25:22.233Z,8.53
2023-03-01T05:27:50.575Z,8.93
2023-03-01T05:30:19.464Z,8.53
2023-03-01T05:32:49.333Z,9.80
2023-03-01T05:35:19.366Z,9.37
2023-03-01T05:37:50.153Z,9.03
2023-03-01T05:40:20.017Z,8.97
2023-03-01T05:42:49.667Z,8.67
2023-03-01T05:45:18.891Z,8.90
2023-03-01T05:47:48.192Z,10.23
2023-03-01T05:50:20.419Z,8.53
2023-03-01T05:52:51.028Z,9.30
2023-03-01T05:55:20.230Z,8.63
2023-03-01T05:57:48.403Z,9.17
2023-03-01T06:00:19.582Z,9.00
2023-03-01T06:02:47.625Z,8.23
2023-03-01T06:05:16.099Z,8.73
2023-03-01T06:07:44.808Z,9.90
2023-03-01T06:10:15.496Z,8.80
2023-03-01T06:12:44.611Z,8.80
2023-03-01T06:15:14.847Z,8.70
2023-03-01T06:17:44.933Z,7.47
2023-03-01T06:20:15.288Z,8.00
2023-03-01T06:22:43.127Z,8.70
2023-03-01T06:25:13.330Z,8.57
2023-03-01T06:27:43.057Z,9.30
2023-03-01T06:30:13.044Z,9.10
2023-03-01T06:32:42.770Z,9.07
2023-03-01T06:35:11.934Z,8.50
2023-03-01T06:37:39.905Z,8.93
2023-03-01T06:40:09.628Z,8.27
2023-03-01T06:42:37.754Z,8.83
2023-03-01T06:45:08.881Z,9.70
2023-03-01T06:47:36.934Z,9.40
2023-03-01T06:50:05.522Z,8.47
2023-03-01T06:52:33.611Z,9.17
2023-03-01T06:55:01.687Z,9.40
2023-03-01T06:57:29.664Z,9.80
2023-03-01T06:59:57.521Z,9.13
2023-03-01T07:02:26.813Z,8.73
2023-03-01T07:04:54.929Z,8.80
2023-03-01T07:07:23.321Z,8.87
2023-03-01T07:09:51.320Z,9.40
2023-03-01T07:12:19.114Z,9.57
2023-03-01T07:14:46.920Z,9.20
2023-03-01T07:17:14.699Z,8.87
2023-03-01T07:19:43.790Z,8.97
2023-03-01T07:22:11.532Z,9.23
2023-03-01T07:24:39.307Z,9.40
2023-03-01T07:27:07.089Z,9.37
2023-03-01T07:29:37.284Z,9.23
2023-03-01T07:32:05.470Z,8.53
2023-03-01T07:34:33.544Z,9.97
2023-03-01T07:37:02.675Z,9.30
2023-03-01T07:39:30.676Z,9.03
2023-03-01T07:41:58.407Z,8.47
2023-03-01T07:44:26.343Z,8.67
2023-03-01T07:46:57.117Z,9.17
2023-03-01T07:49:27.183Z,9.90
2023-03-01T07:51:55.073Z,10.37
2023-03-01T07:54:24.341Z,9.20
2023-03-01T07:56:52.238Z,10.13
2023-03-01T07:59:20.088Z,9.90
2023-03-01T08:01:48.007Z,11.07
2023-03-01T08:04:15.810Z,10.17
2023-03-01T08:06:43.551Z,9.60
2023-03-01T08:09:11.320Z,9.90
2023-03-01T08:11:40.489Z,11.10
2023-03-01T08:14:08.356Z,10.30
2023-03-01T08:16:36.460Z,10.27
2023-03-01T08:19:06.710Z,9.97
2023-03-01T08:21:35.603Z,9.40
2023-03-01T08:24:03.618Z,9.60
2023-03-01T08:26:32.460Z,10.50
2023-03-01T08:29:02.702Z,10.03
2023-03-01T08:31:33.305Z,9.80
2023-03-01T08:34:04.283Z,10.07
2023-03-01T08:36:34.081Z,10.20
2023-03-01T08:39:02.165Z,10.10
2023-03-01T08:41:30.439Z,11.07
2023-03-01T08:44:00.322Z,10.43
2023-03-01T08:46:31.200Z,9.97
2023-03-01T08:48:59.331Z,10.17
2023-03-01T08:51:28.300Z,9.27
2023-03-01T08:53:56.052Z,9.23
2023-03-01T08:56:23.869Z,9.77
2023-03-01T08:58:52.052Z,9.80
2023-03-01T09:01:21.465Z,10.70
2023-03-01T09:03:50.623Z,10.20
2023-03-01T09:06:18.567Z,9.83
2023-03-01T09:08:47.838Z,10.83
2023-03-01T09:11:17.818Z,10.53
2023-03-01T09:13:46.040Z,10.77
2023-03-01T09:16:15.567Z,10.87
2023-03-01T09:18:43.359Z,10.67
2023-03-01T09:21:14.207Z,10.50
2023-03-01T09:23:43.771Z,10.90
2023-03-01T09:26:12.942Z,11.20
2023-03-01T09:28:41.741Z,9.40
2023-03-01T09:31:09.570Z,9.83
2023-03-01T09:33:37.367Z,9.13
2023-03-01T09:36:07.985Z,10.33
2023-03-01T09:38:37.119Z,10.07
2023-03-01T09:41:11.254Z,10.20
2023-03-01T09:46:17.624Z,9.37
2023-03-01T09:48:51.552Z,10.00
2023-03-01T09:51:23.756Z,9.90
2023-03-01T09:53:55.124Z,9.60
2023-03-01T09:56:29.846Z,8.27
2023-03-01T09:59:04.502Z,9.03
2023-03-01T10:01:36.396Z,9.50
2023-03-01T10:04:21.184Z,9.20
2023-03-01T10:06:59.393Z,10.43
2023-03-01T10:09:31.794Z,9.53
2023-03-01T10:12:00.913Z,9.57
2023-03-01T10:14:35.077Z,8.13
2023-03-01T10:17:05.885Z,9.90
2023-03-01T10:19:38.439Z,10.70
2023-03-01T10:22:13.170Z,9.47
2023-03-01T10:24:42.330Z,9.27
2023-03-01T10:27:16.338Z,9.17
2023-03-01T10:29:52.072Z,8.23
2023-03-01T10:32:24.863Z,8.67
2023-03-01T10:34:52.949Z,10.57
2023-03-01T10:37:25.271Z,10.50
2023-03-01T10:40:06.855Z,10.97
2023-03-01T10:42:37.500Z,10.17
2023-03-01T10:45:28.769Z,8.70
2023-03-01T10:48:06.761Z,10.80
2023-03-01T10:50:34.656Z,10.73
2023-03-01T10:53:06.456Z,9.87
2023-03-01T10:55:37.312Z,9.37
2023-03-01T10:58:17.132Z,9.60
2023-03-01T11:00:52.019Z,10.67
2023-03-01T11:03:23.992Z,7.80
2023-03-01T11:06:01.092Z,8.43
2023-03-01T11:08:37.817Z,7.83
2023-03-01T11:11:26.007Z,8.30
2023-03-01T11:13:59.710Z,9.60
2023-03-01T11:16:31.548Z,9.57
2023-03-01T11:19:17.157Z,10.27
2023-03-01T11:21:54.189Z,9.10
2023-03-01T11:24:25.731Z,9.50
2023-03-01T11:26:56.583Z,8.77
2023-03-01T11:29:37.319Z,9.53
2023-03-01T11:32:12.639Z,8.70
2023-03-01T11:34:49.704Z,9.43
2023-03-01T11:37:25.820Z,9.33
2023-03-01T11:40:02.437Z,9.07
2023-03-01T11:42:44.575Z,8.13
2023-03-01T11:45:14.650Z,7.70
2023-03-01T11:48:01.506Z,8.37
2023-03-01T11:50:37.102Z,9.70
2023-03-01T11:53:29.547Z,8.17
2023-03-01T11:56:10.764Z,8.63
2023-03-01T11:58:56.024Z,10.13
2023-03-01T12:01:34.776Z,8.87
2023-03-01T12:04:28.745Z,7.47
2023-03-01T12:06:59.613Z,9.67
2023-03-01T12:09:46.026Z,7.60
2023-03-01T12:12:29.273Z,9.17
2023-03-01T12:15:28.911Z,8.17
2023-03-01T12:18:47.133Z,8.20
2023-03-01T12:21:24.459Z,9.40
2023-03-01T12:24:16.602Z,8.00
2023-03-01T12:26:55.414Z,8.10
2023-03-01T12:29:28.080Z,8.57
2023-03-01T12:32:23.663Z,9.80
2023-03-01T12:35:06.028Z,8.67
2023-03-01T12:37:51.532Z,9.00
2023-03-01T12:40:55.779Z,8.90
2023-03-01T12:43:36.696Z,9.07
2023-03-01T12:46:25.748Z,8.57
2023-03-01T12:49:04.561Z,7.57
2023-03-01T12:51:35.640Z,9.70
2023-03-01T12:54:13.343Z,9.70
2023-03-01T12:56:41.520Z,8.80
2023-03-01T12:59:17.266Z,9.57
2023-03-01T13:01:54.006Z,8.00
2023-03-01T13:04:48.180Z,7.97
2023-03-01T13:07:27.984Z,7.80
2023-03-01T13:10:07.706Z,8.17
2023-03-01T13:13:04.482Z,8.87
2023-03-01T13:15:36.768Z,7.93
2023-03-01T13:18:26.530Z,7.90
2023-03-01T13:20:58.252Z,9.93
2023-03-01T13:23:29.168Z,8.37
2023-03-01T13:26:06.158Z,10.10
2023-03-01T13:28:43.275Z,8.73
2023-03-01T13:31:14.634Z,8.93
2023-03-01T13:33:47.321Z,9.33
2023-03-01T13:36:50.430Z,9.70
2023-03-01T13:39:40.256Z,8.73
2023-03-01T13:42:37.677Z,8.90
2023-03-01T13:45:15.886Z,9.23
2023-03-01T13:47:44.399Z,9.87
2023-03-01T13:50:21.455Z,9.20
2023-03-01T13:52:58.492Z,9.03
2023-03-01T13:55:31.919Z,8.57
2023-03-01T13:58:03.793Z,9.07
2023-03-01T14:00:36.033Z,8.53
2023-03-01T14:03:10.771Z,8.40
2023-03-01T14:05:39.584Z,9.00
2023-03-01T14:08:21.958Z,10.10
2023-03-01T14:11:18.297Z,10.27
2023-03-01T14:13:58.661Z,9.23
2023-03-01T14:16:41.895Z,9.53
2023-03-01T14:19:31.205Z,9.93
2023-03-01T14:22:06.190Z,10.03
2023-03-01T14:24:39.437Z,9.60
2023-03-01T14:27:13.438Z,9.97
2023-03-01T14:29:42.203Z,10.50
2023-03-01T14:32:19.748Z,9.23
2023-03-01T14:34:49.160Z,9.63
2023-03-01T14:37:23.487Z,8.70
2023-03-01T14:39:53.759Z,8.10
2023-03-01T14:42:24.142Z,8.00
2023-03-01T14:44:54.613Z,8.80
2023-03-01T14:47:28.973Z,8.33
2023-03-01T14:50:01.318Z,8.37
2023-03-01T14:52:36.862Z,8.97
2023-03-01T14:55:09.383Z,8.83
2023-03-01T14:57:37.358Z,7.70
2023-03-01T15:00:09.573Z,7.70
2023-03-01T15:02:39.756Z,8.40
2023-03-01T15:05:09.840Z,8.17
2023-03-01T15:07:41.672Z,7.50
2023-03-01T15:10:21.239Z,7.80
2023-03-01T15:12:49.023Z,7.63
2023-03-01T15:15:36.716Z,7.70
2023-03-01T15:18:08.490Z,8.03
2023-03-01T15:20:39.167Z,7.57
2023-03-01T15:23:07.273Z,8.37
2023-03-01T15:25:36.989Z,7.33
2023-03-01T15:28:05.710Z,7.57
2023-03-01T15:30:38.088Z,6.87
2023-03-01T15:33:29.629Z,7.30
2023-03-01T15:35:58.487Z,7.07
2023-03-01T15:38:32.832Z,7.23
2023-03-01T15:41:03.548Z,7.40
2023-03-01T15:43:43.497Z,7.17
2023-03-01T15:46:20.801Z,7.00
2023-03-01T15:48:51.588Z,7.57
2023-03-01T15:51:19.428Z,7.53
2023-03-01T15:53:54.533Z,7.17
2023-03-01T15:56:23.940Z,6.73
2023-03-01T15:58:51.741Z,8.10
2023-03-01T16:01:19.862Z,7.83
2023-03-01T16:03:47.794Z,7.90
2023-03-01T16:06:15.665Z,8.00
2023-03-01T16:08:43.673Z,8.50
2023-03-01T16:11:22.820Z,8.33
2023-03-01T16:13:51.985Z,7.77
2023-03-01T16:16:19.925Z,8.20
2023-03-01T16:18:48.629Z,8.17
2023-03-01T16:21:20.656Z,8.27
2023-03-01T16:23:48.704Z,7.87
2023-03-01T16:26:19.044Z,8.27
2023-03-01T16:28:48.306Z,9.03
2023-03-01T16:31:20.149Z,8.23
2023-03-01T16:33:50.557Z,7.60
2023-03-01T16:36:20.321Z,8.17
2023-03-01T16:38:49.212Z,7.30
2023-03-01T16:41:18.826Z,7.87
2023-03-01T16:43:48.226Z,8.03
2023-03-01T16:46:19.342Z,8.17
2023-03-01T16:48:48.298Z,8.33
2023-03-01T16:51:16.901Z,8.63
2023-03-01T16:53:47.055Z,9.13
2023-03-01T16:56:16.139Z,8.23
2023-03-01T16:58:44.016Z,8.90
2023-03-01T17:01:14.071Z,9.30
2023-03-01T17:03:44.070Z,8.30
2023-03-01T17:06:16.636Z,8.93
2023-03-01T17:08:44.444Z,9.73
2023-03-01T17:11:14.753Z,9.20
2023-03-01T17:13:43.392Z,9.23
2023-03-01T17:16:13.855Z,10.13
2023-03-01T17:18:43.483Z,9.93
2023-03-01T17:21:12.174Z,10.83
2023-03-01T17:23:42.263Z,10.20
2023-03-01T17:26:10.239Z,10.70
2023-03-01T17:28:39.240Z,10.37
2023-03-01T17:31:08.015Z,11.00
2023-03-01T17:33:36.283Z,10.63
2023-03-01T17:36:06.842Z,11.43
2023-03-01T17:38:36.373Z,11.30
2023-03-01T17:41:04.680Z,11.70
2023-03-01T17:43:34.401Z,11.30
2023-03-01T17:46:04.401Z,12.00
2023-03-01T17:48:32.220Z,10.80
2023-03-01T17:51:00.000Z,12.27
2023-03-01T17:53:29.894Z,11.30
2023-03-01T17:56:02.643Z,11.40
2023-03-01T17:58:30.853Z,11.10
2023-03-01T18:01:08.541Z,9.93
2023-03-01T18:03:36.419Z,11.33
2023-03-01T18:06:04.431Z,12.23
2023-03-01T18:08:33.977Z,12.97
2023-03-01T18:11:01.750Z,10.90
2023-03-01T18:13:29.543Z,11.50
2023-03-01T18:16:00.797Z,11.17
2023-03-01T18:18:28.711Z,11.40
2023-03-01T18:20:57.369Z,11.70
2023-03-01T18:23:25.525Z,12.20
2023-03-01T18:25:59.348Z,12.53
2023-03-01T18:28:27.730Z,11.47
2023-03-01T18:30:59.084Z,11.33
2023-03-01T18:33:27.392Z,12.07
2023-03-01T18:35:55.193Z,12.60
2023-03-01T18:38:23.043Z,11.10
2023-03-01T18:40:53.945Z,10.90
2023-03-01T18:43:21.959Z,10.40
2023-03-01T18:45:49.842Z,11.77
2023-03-01T18:48:18.645Z,11.53
2023-03-01T18:50:46.406Z,12.07
2023-03-01T18:53:14.218Z,12.10
2023-03-01T18:55:42.120Z,11.50
2023-03-01T18:58:11.568Z,10.83
2023-03-01T19:00:39.354Z,11.40
2023-03-01T19:03:07.157Z,11.87
2023-03-01T19:05:34.924Z,12.23
2023-03-01T19:08:02.687Z,11.77
2023-03-01T19:10:31.655Z,12.83
2023-03-01T19:12:59.454Z,11.57
2023-03-01T19:15:28.622Z,12.27
2023-03-01T19:17:57.215Z,11.53
2023-03-01T19:20:25.000Z,10.47
2023-03-01T19:22:52.751Z,11.50
2023-03-01T19:25:20.544Z,10.83
2023-03-01T19:27:48.983Z,12.17
2023-03-01T19:30:17.195Z,11.53
2023-03-01T19:32:46.631Z,12.97
2023-03-01T19:35:14.420Z,12.17
2023-03-01T19:37:42.196Z,11.27
2023-03-01T19:40:11.383Z,11.47
2023-03-01T19:42:39.171Z,12.07
2023-03-01T19:45:08.246Z,12.17
2023-03-01T19:47:36.005Z,12.13
2023-03-01T19:50:05.520Z,12.30
2023-03-01T19:52:33.270Z,13.17
2023-03-01T19:55:09.402Z,12.30
2023-03-01T19:57:37.889Z,12.40
2023-03-01T20:00:06.776Z,13.07
2023-03-01T20:02:34.626Z,11.83
2023-03-01T20:05:02.396Z,12.40
2023-03-01T20:07:31.488Z,11.80
2023-03-01T20:09:59.267Z,12.20
2023-03-01T20:12:27.086Z,11.60
2023-03-01T20:14:56.295Z,11.93
2023-03-01T20:17:24.259Z,11.73
2023-03-01T20:19:52.115Z,12.33
2023-03-01T20:22:20.222Z,12.27
2023-03-01T20:24:49.366Z,12.40
2023-03-01T20:27:17.117Z,11.63
2023-03-01T20:29:45.806Z,12.33
2023-03-01T20:32:13.905Z,10.60
2023-03-01T20:34:41.724Z,12.40
2023-03-01T20:37:09.751Z,13.60
2023-03-01T20:39:37.623Z,12.83
2023-03-01T20:42:07.301Z,12.90
2023-03-01T20:44:35.586Z,13.30
2023-03-01T20:47:03.433Z,12.07
2023-03-01T20:49:31.235Z,12.20
2023-03-01T20:51:59.000Z,12.23
2023-03-01T20:54:27.790Z,12.87
2023-03-01T20:56:55.823Z,12.40
2023-03-01T20:59:25.324Z,12.93
2023-03-01T21:01:53.116Z,13.47
2023-03-01T21:04:21.775Z,11.43
2023-03-01T21:06:49.667Z,13.50
2023-03-01T21:09:18.159Z,13.23
2023-03-01T21:11:45.956Z,12.63
2023-03-01T21:14:13.794Z,11.50
2023-03-01T21:16:45.610Z,12.00
2023-03-01T21:19:13.487Z,12.90
2023-03-01T21:21:41.309Z,13.07
2023-03-01T21:24:10.360Z,11.83
2023-03-01T21:26:39.085Z,12.40
2023-03-01T21:29:06.906Z,12.30
2023-03-01T21:31:36.058Z,11.87
2023-03-01T21:34:07.080Z,12.90
2023-03-01T21:36:36.576Z,13.00
2023-03-01T21:39:06.599Z,12.53
2023-03-01T21:41:36.117Z,12.40
2023-03-01T21:44:06.575Z,11.53
2023-03-01T21:46:36.854Z,11.70
2023-03-01T21:49:07.203Z,13.00
2023-03-01T21:51:36.331Z,11.67
2023-03-01T21:54:04.373Z,11.40
2023-03-01T21:56:34.965Z,11.90
2023-03-01T21:59:03.344Z,12.50
2023-03-01T22:01:31.336Z,12.10
2023-03-01T22:04:01.648Z,11.43
2023-03-01T22:06:34.155Z,11.27
2023-03-01T22:09:05.776Z,10.93
2023-03-01T22:11:34.980Z,10.37
2023-03-01T22:14:04.583Z,13.10
2023-03-01T22:16:34.635Z,12.67
2023-03-01T22:19:03.391Z,11.87
2023-03-01T22:21:32.509Z,12.03
2023-03-01T22:24:00.711Z,12.33
2023-03-01T22:26:31.492Z,11.73
2023-03-01T22:29:01.537Z,11.00
2023-03-01T22:31:29.779Z,11.43
2023-03-01T22:33:58.425Z,12.37
2023-03-01T22:36:26.713Z,12.90
2023-03-01T22:39:00.091Z,12.60
2023-03-01T22:41:29.309Z,11.07
2023-03-01T22:43:57.655Z,12.90
2023-03-01T22:46:26.874Z,10.97
2023-03-01T22:48:55.226Z,11.27
2023-03-01T22:51:25.742Z,12.47
2023-03-01T22:53:55.709Z,12.40
2023-03-01T22:56:28.695Z,11.87
2023-03-01T22:58:57.998Z,12.90
2023-03-01T23:01:26.963Z,12.63
2023-03-01T23:03:54.998Z,11.43
2023-03-01T23:06:23.424Z,11.77
2023-03-01T23:08:52.503Z,11.83
2023-03-01T23:11:22.864Z,11.23
2023-03-01T23:13:51.142Z,12.33
2023-03-01T23:16:19.345Z,11.53
2023-03-01T23:18:47.199Z,12.30
2023-03-01T23:21:17.378Z,12.17
2023-03-01T23:23:46.528Z,12.60
2023-03-01T23:26:14.900Z,12.10
2023-03-01T23:28:44.338Z,10.97
2023-03-01T23:31:14.497Z,12.47
2023-03-01T23:33:44.398Z,11.83
2023-03-01T23:36:20.426Z,10.57
2023-03-01T23:38:49.104Z,10.73
2023-03-01T23:41:20.192Z,10.77
2023-03-01T23:43:50.981Z,11.97
2023-03-01T23:46:21.164Z,11.60
2023-03-01T23:48:49.676Z,11.07
2023-03-01T23:51:18.993Z,10.73
2023-03-01T23:53:54.267Z,11.43
2023-03-01T23:56:26.596Z,10.43
2023-03-01T23:58:57.870Z,10.90
